createdAt,value
2023-04-05T00:00:15.615Z,3.55
2023-04-05T00:02:44.260Z,3.05
2023-04-05T00:05:12.070Z,2.92
2023-04-05T00:07:39.645Z,3.40
2023-04-05T00:10:07.153Z,2.95
2023-04-05T00:12:34.402Z,3.03
2023-04-05T00:15:01.669Z,4.28
2023-04-05T00:17:29.773Z,3.40
2023-04-05T00:19:57.994Z,3.03
2023-04-05T00:22:25.702Z,2.83
2023-04-05T00:24:53.049Z,3.50
2023-04-05T00:27:20.603Z,3.47
2023-04-05T00:29:47.892Z,3.13
2023-04-05T00:32:15.488Z,3.20
2023-04-05T00:34:42.952Z,2.50
2023-04-05T00:37:10.337Z,3.03
2023-04-05T00:39:37.607Z,2.90
2023-04-05T00:42:04.975Z,3.35
2023-04-05T00:44:35.413Z,3.58
2023-04-05T00:47:03.960Z,3.03
2023-04-05T00:49:31.687Z,3.55
2023-04-05T00:51:59.315Z,3.35
2023-04-05T00:54:28.635Z,3.03
2023-04-05T00:56:59.908Z,3.50
2023-04-05T00:59:29.248Z,3.25
2023-04-05T01:02:01.654Z,3.20
2023-04-05T01:04:32.637Z,3.30
2023-04-05T01:07:12.962Z,3.42
2023-04-05T01:09:46.359Z,3.47
2023-04-05T01:12:17.578Z,3.38
2023-04-05T01:14:46.002Z,2.67
2023-04-05T01:17:13.318Z,3.47
2023-04-05T01:19:42.135Z,2.80
2023-04-05T01:22:40.426Z,3.20
2023-04-05T01:25:42.588Z,2.85
2023-04-05T01:28:09.821Z,3.00
2023-04-05T01:30:47.809Z,3.20
2023-04-05T01:33:17.971Z,3.05
2023-04-05T01:35:52.119Z,3.45
2023-04-05T01:38:20.477Z,3.20
2023-04-05T01:40:48.085Z,3.00
2023-04-05T01:43:16.687Z,3.03
2023-04-05T01:45:44.334Z,3.10
2023-04-05T01:48:11.907Z,3.25
2023-04-05T01:50:39.469Z,2.53
2023-04-05T01:53:10.042Z,3.28
2023-04-05T01:55:37.379Z,3.65
2023-04-05T01:58:04.909Z,3.20
2023-04-05T02:00:32.662Z,3.00
2023-04-05T02:02:59.999Z,3.90
2023-04-05T02:05:27.332Z,2.95
2023-04-05T02:25:13.169Z,3.35
2023-04-05T02:27:41.193Z,3.50
2023-04-05T02:30:09.489Z,3.20
2023-04-05T02:32:36.885Z,3.25
2023-04-05T02:35:04.314Z,3.38
2023-04-05T02:37:31.599Z,3.05
2023-04-05T02:39:58.887Z,3.67
2023-04-05T02:42:26.171Z,3.33
2023-04-05T02:44:53.691Z,3.42
2023-04-05T02:47:22.831Z,3.67
2023-04-05T02:49:57.853Z,3.22
2023-04-05T02:52:27.909Z,3.33
2023-04-05T02:54:55.247Z,3.13
2023-04-05T02:57:27.157Z,3.00
2023-04-05T03:00:12.044Z,3.45
2023-04-05T03:02:42.695Z,3.03
2023-04-05T03:05:10.351Z,2.70
2023-04-05T03:07:38.316Z,3.15
2023-04-05T03:10:10.108Z,2.60
2023-04-05T03:12:40.469Z,2.83
2023-04-05T03:15:09.746Z,2.92
2023-04-05T03:17:44.230Z,2.70
2023-04-05T03:20:13.422Z,3.17
2023-04-05T03:22:41.744Z,2.60
2023-04-05T03:25:09.883Z,2.85
2023-04-05T03:27:43.687Z,3.08
2023-04-05T03:30:17.913Z,3.05
2023-04-05T03:32:52.450Z,3.65
2023-04-05T03:35:46.124Z,3.10
2023-04-05T03:38:14.468Z,3.58
2023-04-05T03:40:53.223Z,2.92
2023-04-05T03:43:20.637Z,3.45
2023-04-05T03:45:48.334Z,3.03
2023-04-05T03:48:20.111Z,2.63
2023-04-05T03:50:49.132Z,2.97
2023-04-05T03:53:19.162Z,2.92
2023-04-05T03:55:50.470Z,2.85
2023-04-05T03:58:22.032Z,3.08
2023-04-05T04:00:50.566Z,1.98
2023-04-05T04:03:21.428Z,2.92
2023-04-05T04:05:51.914Z,2.85
2023-04-05T04:08:20.839Z,3.38
2023-04-05T04:10:49.208Z,3.55
2023-04-05T04:13:23.070Z,3.45
2023-04-05T04:16:04.103Z,3.35
2023-04-05T04:18:38.556Z,3.70
2023-04-05T04:21:25.133Z,2.88
2023-04-05T04:24:18.852Z,3.20
2023-04-05T04:27:10.646Z,3.08
2023-04-05T04:29:49.952Z,3.08
2023-04-05T04:32:54.883Z,3.53
2023-04-05T04:35:39.144Z,4.05
2023-04-05T04:38:20.674Z,2.90
2023-04-05T04:41:11.746Z,2.90
2023-04-05T04:44:05.514Z,3.00
2023-04-05T04:46:44.425Z,3.40
2023-04-05T04:49:17.282Z,3.35
2023-04-05T04:51:48.802Z,3.35
2023-04-05T04:54:20.931Z,3.25
2023-04-05T04:56:48.566Z,3.60
2023-04-05T04:59:31.958Z,3.60
2023-04-05T05:01:59.316Z,3.40
2023-04-05T05:04:26.671Z,3.50
2023-04-05T05:06:54.466Z,3.53
2023-04-05T05:09:21.769Z,3.85
2023-04-05T08:16:57.370Z,3.92
2023-04-05T08:19:24.682Z,4.22
2023-04-05T08:22:00.498Z,4.30
2023-04-05T08:24:27.814Z,4.75
2023-04-05T08:26:55.072Z,3.97
2023-04-05T08:29:22.294Z,4.57
2023-04-05T08:31:49.693Z,3.85
2023-04-05T08:34:17.182Z,4.43
2023-04-05T08:36:44.463Z,4.38
2023-04-05T08:39:11.884Z,4.28
2023-04-05T08:41:45.081Z,4.47
2023-04-05T08:44:13.534Z,4.03
2023-04-05T08:46:40.959Z,5.13
2023-04-05T08:49:08.715Z,3.75
2023-04-05T08:51:42.251Z,3.78
2023-04-05T08:54:09.715Z,4.25
2023-04-05T08:56:37.168Z,3.45
2023-04-05T08:59:10.773Z,3.53
2023-04-05T09:01:45.304Z,3.75
2023-04-05T09:04:25.320Z,4.28
2023-04-05T09:06:55.615Z,3.25
2023-04-05T09:11:51.046Z,3.78
2023-04-05T09:14:18.624Z,3.63
2023-04-05T09:16:49.271Z,3.63
2023-04-05T09:19:16.560Z,3.92
2023-04-05T09:22:02.710Z,3.67
2023-04-05T09:24:35.461Z,3.63
2023-04-05T09:27:07.554Z,3.88
2023-04-05T09:29:35.151Z,3.95
2023-04-05T09:32:06.791Z,3.28
2023-04-05T09:34:37.411Z,3.10
2023-04-05T09:37:18.323Z,2.30
2023-04-05T09:39:46.246Z,2.92
2023-04-05T09:42:14.482Z,2.55
2023-04-05T09:44:57.596Z,2.88
2023-04-05T09:47:31.267Z,2.75
2023-04-05T09:50:06.094Z,2.75
2023-04-05T09:52:33.628Z,2.33
2023-04-05T09:55:03.149Z,2.42
2023-04-05T09:57:34.792Z,2.60
2023-04-05T10:00:02.096Z,2.45
2023-04-05T10:02:39.406Z,2.88
2023-04-05T10:05:07.965Z,2.47
2023-04-05T10:07:35.441Z,2.05
2023-04-05T10:10:02.782Z,2.85
2023-04-05T10:12:30.267Z,2.53
2023-04-05T10:14:57.489Z,2.92
2023-04-05T10:17:29.529Z,3.17
2023-04-05T10:20:06.161Z,2.60
2023-04-05T10:22:33.773Z,2.63
2023-04-05T10:25:08.310Z,2.35
2023-04-05T10:27:48.606Z,2.72
2023-04-05T10:30:16.909Z,3.10
2023-04-05T10:32:44.249Z,3.03
2023-04-05T10:35:21.664Z,3.35
2023-04-05T10:38:35.532Z,3.28
2023-04-05T10:41:14.747Z,2.67
2023-04-05T10:43:42.715Z,2.50
2023-04-05T10:46:11.488Z,2.58
2023-04-05T10:48:47.717Z,3.08
2023-04-05T10:51:15.453Z,2.95
2023-04-05T10:53:42.834Z,2.53
2023-04-05T10:56:10.491Z,3.17
2023-04-05T10:58:40.610Z,3.13
2023-04-05T11:01:09.421Z,2.88
2023-04-05T11:03:50.550Z,3.15
2023-04-05T11:06:29.534Z,3.05
2023-04-05T11:09:11.610Z,2.85
2023-04-05T11:11:40.415Z,3.10
2023-04-05T11:14:34.931Z,3.15
2023-04-05T11:17:05.491Z,3.10
2023-04-05T11:19:48.045Z,2.95
2023-04-05T11:22:25.887Z,2.92
2023-04-05T11:24:56.840Z,3.65
2023-04-05T11:27:37.584Z,3.05
2023-04-05T11:30:06.505Z,3.13
2023-04-05T11:32:41.064Z,3.33
2023-04-05T11:35:15.700Z,3.33
2023-04-05T11:37:56.046Z,2.97
2023-04-05T11:40:33.727Z,3.00
2023-04-05T11:43:10.272Z,2.83
2023-04-05T11:45:41.952Z,3.97
2023-04-05T11:48:13.633Z,3.03
2023-04-05T11:50:42.032Z,2.70
2023-04-05T11:53:12.774Z,3.13
2023-04-05T11:58:18.056Z,3.10
2023-04-05T12:01:02.750Z,2.92
2023-04-05T12:03:30.773Z,3.10
2023-04-05T12:06:05.665Z,3.08
2023-04-05T12:08:39.266Z,3.40
2023-04-05T12:11:11.640Z,3.50
2023-04-05T12:13:39.816Z,3.72
2023-04-05T12:16:09.245Z,3.30
2023-04-05T12:18:37.410Z,4.17
2023-04-05T12:21:10.908Z,3.42
2023-04-05T12:23:38.473Z,3.47
2023-04-05T12:26:07.717Z,4.00
2023-04-05T12:28:54.473Z,3.45
2023-04-05T12:31:41.482Z,3.40
2023-04-05T12:34:09.271Z,3.03
2023-04-05T12:36:36.779Z,3.70
2023-04-05T12:39:07.535Z,3.22
2023-04-05T12:41:35.616Z,3.80
2023-04-05T12:44:11.412Z,3.55
2023-04-05T12:46:41.087Z,3.72
2023-04-05T12:49:17.404Z,3.45
2023-04-05T12:51:46.206Z,3.08
2023-04-05T12:54:14.591Z,3.42
2023-04-05T12:56:44.758Z,3.25
2023-04-05T12:59:12.282Z,3.00
2023-04-05T13:01:40.206Z,3.22
2023-04-05T13:04:15.920Z,3.35
2023-04-05T13:06:58.691Z,3.45
2023-04-05T13:09:25.936Z,3.28
2023-04-05T13:12:07.620Z,3.55
2023-04-05T13:14:34.931Z,3.08
2023-04-05T13:17:02.166Z,3.42
2023-04-05T13:19:29.471Z,3.42
2023-04-05T13:21:56.733Z,3.65
2023-04-05T13:24:23.974Z,2.88
2023-04-05T13:26:51.266Z,3.40
2023-04-05T13:29:18.528Z,3.40
2023-04-05T13:31:45.802Z,3.10
2023-04-05T13:34:13.090Z,3.20
2023-04-05T13:36:40.621Z,3.78
2023-04-05T13:39:07.984Z,3.20
2023-04-05T13:41:35.310Z,3.67
2023-04-05T13:44:03.907Z,3.35
2023-04-05T13:46:32.681Z,2.78
2023-04-05T13:49:16.223Z,3.60
2023-04-05T13:51:43.498Z,3.58
2023-04-05T13:54:14.038Z,3.55
2023-04-05T13:56:41.263Z,3.47
2023-04-05T13:59:08.622Z,4.07
2023-04-05T14:01:36.298Z,3.35
2023-04-05T14:04:03.654Z,3.92
2023-04-05T14:06:31.198Z,3.10
2023-04-05T14:09:01.160Z,3.00
2023-04-05T14:11:28.421Z,3.30
2023-04-05T14:13:55.985Z,2.40
2023-04-05T14:16:23.313Z,2.95
2023-04-05T14:18:50.868Z,3.10
2023-04-05T14:21:18.200Z,3.28
2023-04-05T14:23:45.482Z,3.08
2023-04-05T14:26:28.010Z,3.10
2023-04-05T14:28:55.559Z,2.95
2023-04-05T14:31:25.202Z,3.25
2023-04-05T14:33:52.752Z,3.28
2023-04-05T14:36:20.047Z,2.58
2023-04-05T14:38:47.777Z,3.30
2023-04-05T14:41:15.314Z,2.83
2023-04-05T14:43:43.155Z,3.30
2023-04-05T14:46:10.478Z,2.85
2023-04-05T14:48:37.881Z,3.28
2023-04-05T14:51:08.610Z,3.35
2023-04-05T14:53:36.161Z,2.92
2023-04-05T14:56:03.722Z,3.22
2023-04-05T14:58:33.037Z,3.15
2023-04-05T15:01:00.309Z,3.15
2023-04-05T15:03:27.759Z,2.92
2023-04-05T15:05:55.198Z,2.97
2023-04-05T15:08:37.001Z,2.88
2023-04-05T15:11:05.079Z,3.42
2023-04-05T15:13:32.393Z,3.15
2023-04-05T15:15:59.662Z,2.65
2023-04-05T15:18:26.943Z,2.40
2023-04-05T15:20:54.245Z,3.70
2023-04-05T15:23:21.581Z,3.03
2023-04-05T15:25:48.847Z,2.72
2023-04-05T15:28:16.373Z,3.38
2023-04-05T15:30:44.885Z,2.90
2023-04-05T15:33:19.028Z,2.88
2023-04-05T15:35:46.618Z,2.90
2023-04-05T15:38:13.935Z,3.67
2023-04-05T15:40:41.258Z,3.08
2023-04-05T15:43:08.519Z,3.00
2023-04-05T15:45:36.149Z,2.70
2023-04-05T15:48:03.563Z,2.95
2023-04-05T15:50:30.905Z,3.15
2023-04-05T15:52:58.204Z,2.40
2023-04-05T15:55:25.615Z,2.53
2023-04-05T15:57:54.685Z,3.67
2023-04-05T16:00:22.772Z,2.45
2023-04-05T16:03:00.782Z,2.85
2023-04-05T16:05:28.355Z,3.10
2023-04-05T16:08:09.728Z,2.83
2023-04-05T16:10:37.180Z,3.08
2023-04-05T16:13:04.425Z,2.83
2023-04-05T16:15:32.549Z,3.53
2023-04-05T16:17:59.977Z,2.67
2023-04-05T16:20:27.414Z,3.00
2023-04-05T16:22:54.791Z,3.25
2023-04-05T16:25:22.525Z,2.95
2023-04-05T16:27:49.766Z,2.80
2023-04-05T16:30:17.120Z,3.50
2023-04-05T16:32:44.549Z,3.10
2023-04-05T16:35:11.900Z,3.13
2023-04-05T16:37:47.209Z,3.53
2023-04-05T16:40:14.635Z,2.70
2023-04-05T16:42:41.881Z,3.47
2023-04-05T16:45:09.492Z,3.05
2023-04-05T16:47:36.835Z,2.97
2023-04-05T16:50:04.740Z,2.67
2023-04-05T16:52:32.092Z,2.78
2023-04-05T16:54:59.461Z,2.70
2023-04-05T16:57:26.705Z,2.95
2023-04-05T16:59:53.979Z,2.83
2023-04-05T17:02:21.459Z,2.80
2023-04-05T17:04:48.827Z,2.40
2023-04-05T17:07:17.188Z,3.25
2023-04-05T17:09:44.507Z,2.47
2023-04-05T17:12:12.453Z,2.90
2023-04-05T17:14:39.847Z,3.00
2023-04-05T17:17:07.137Z,3.08
2023-04-05T17:19:34.418Z,2.92
2023-04-05T17:22:01.788Z,2.85
2023-04-05T17:24:39.567Z,3.10
2023-04-05T17:27:07.432Z,2.88
2023-04-05T17:29:34.731Z,3.03
2023-04-05T17:32:02.465Z,2.75
2023-04-05T17:34:29.765Z,2.95
2023-04-05T17:36:56.974Z,2.60
2023-04-05T17:39:24.231Z,2.88
2023-04-05T17:41:54.607Z,3.47
2023-04-05T17:47:01.282Z,4.53
2023-04-05T17:49:36.593Z,2.90
2023-04-05T17:52:04.629Z,3.00
2023-04-05T17:54:37.142Z,2.60
2023-04-05T17:57:05.256Z,3.38
2023-04-05T17:59:32.751Z,3.13
2023-04-05T18:02:00.150Z,3.80
2023-04-05T18:04:42.858Z,3.13
2023-04-05T18:07:10.355Z,3.13
2023-04-05T18:09:41.818Z,3.35
2023-04-05T18:12:09.419Z,3.60
2023-04-05T18:14:37.066Z,3.50
2023-04-05T18:17:07.422Z,3.25
2023-04-05T18:22:02.066Z,2.60
2023-04-05T18:24:29.642Z,2.45
2023-04-05T18:26:57.689Z,2.75
2023-04-05T18:29:28.548Z,2.85
2023-04-05T18:31:56.664Z,2.80
2023-04-05T18:34:24.058Z,2.50
2023-04-05T18:36:54.481Z,2.83
2023-04-05T18:41:48.675Z,2.92
2023-04-05T18:44:16.090Z,3.00
2023-04-05T18:46:44.197Z,3.53
2023-04-05T18:49:11.753Z,3.50
2023-04-05T18:51:39.046Z,3.95
2023-04-05T18:54:06.337Z,3.20
2023-04-05T18:56:33.773Z,2.45
2023-04-05T18:59:01.028Z,3.05
2023-04-05T19:01:28.395Z,4.22
2023-04-05T19:03:56.099Z,3.13
2023-04-05T19:06:23.467Z,3.45
2023-04-05T19:08:50.972Z,3.25
2023-04-05T19:11:18.853Z,3.15
2023-04-05T19:13:46.690Z,3.08
2023-04-05T19:16:14.161Z,3.97
2023-04-05T19:18:41.517Z,5.13
2023-04-05T19:21:09.150Z,3.55
2023-04-05T19:23:36.849Z,3.67
2023-04-05T19:26:04.147Z,2.90
2023-04-05T19:28:31.438Z,3.17
2023-04-05T19:30:58.743Z,3.33
2023-04-05T19:33:26.276Z,3.72
2023-04-05T19:35:53.701Z,2.65
2023-04-05T19:38:24.338Z,3.30
2023-04-05T19:40:51.661Z,3.83
2023-04-05T19:43:18.968Z,3.15
2023-04-05T19:45:46.253Z,2.92
2023-04-05T19:48:36.077Z,2.80
2023-04-05T19:51:10.463Z,3.40
2023-04-05T19:53:51.155Z,3.05
2023-04-05T19:56:22.883Z,3.92
2023-04-05T19:58:54.355Z,3.70
2023-04-05T20:01:33.726Z,3.45
2023-04-05T20:04:02.337Z,3.78
2023-04-05T20:06:32.015Z,4.25
2023-04-05T20:09:04.217Z,3.88
2023-04-05T20:11:31.885Z,4.15
2023-04-05T20:14:01.147Z,3.85
2023-04-05T20:16:36.620Z,4.45
2023-04-05T20:19:03.852Z,4.78
2023-04-05T20:21:31.254Z,4.47
2023-04-05T20:23:58.906Z,5.22
2023-04-05T20:26:30.871Z,4.22
2023-04-05T20:29:00.348Z,4.22
2023-04-05T20:31:33.066Z,4.47
2023-04-05T20:34:12.514Z,4.60
2023-04-05T20:36:50.428Z,4.87
2023-04-05T20:39:17.800Z,5.00
2023-04-05T20:41:46.212Z,4.60
2023-04-05T20:44:13.740Z,4.18
2023-04-05T20:46:41.195Z,5.22
2023-04-05T20:49:08.955Z,3.95
2023-04-05T20:51:37.040Z,4.25
2023-04-05T20:54:04.727Z,5.07
2023-04-05T20:56:32.265Z,4.18
2023-04-05T20:58:59.613Z,4.63
2023-04-05T21:01:27.228Z,4.85
2023-04-05T21:03:54.869Z,4.43
2023-04-05T21:06:22.218Z,4.30
2023-04-05T21:08:49.556Z,4.75
2023-04-05T21:11:16.817Z,4.90
2023-04-05T21:13:44.071Z,5.15
2023-04-05T21:16:11.803Z,4.22
2023-04-05T21:18:39.106Z,4.93
2023-04-05T21:21:06.478Z,5.15
2023-04-05T21:23:34.474Z,5.05
2023-04-05T21:26:04.189Z,5.40
2023-04-05T21:28:31.615Z,4.78
2023-04-05T21:30:58.958Z,5.20
2023-04-05T21:33:26.199Z,5.82
2023-04-05T21:35:53.465Z,5.10
2023-04-05T21:38:20.989Z,4.70
2023-04-05T21:40:50.138Z,4.60
2023-04-05T21:43:17.500Z,4.43
2023-04-05T21:45:45.852Z,4.18
2023-04-05T21:48:13.135Z,4.88
2023-04-05T21:50:40.433Z,4.25
2023-04-05T21:53:09.702Z,4.82
2023-04-05T21:55:37.286Z,5.55
2023-04-05T21:58:04.634Z,4.65
2023-04-05T22:00:32.191Z,5.45
2023-04-05T22:02:59.521Z,4.43
2023-04-05T22:05:37.298Z,4.15
2023-04-05T22:08:06.432Z,5.68
2023-04-05T22:10:34.485Z,5.20
2023-04-05T22:13:02.059Z,4.40
2023-04-05T22:15:29.331Z,6.45
2023-04-05T22:17:56.656Z,5.22
2023-04-05T22:20:23.985Z,4.00
2023-04-05T22:22:51.914Z,4.85
2023-04-05T22:25:19.212Z,4.18
2023-04-05T22:27:46.458Z,4.43
2023-04-05T22:30:13.971Z,4.72
2023-04-05T22:32:41.363Z,3.97
2023-04-05T22:35:08.802Z,3.75
2023-04-05T22:37:37.987Z,3.90
2023-04-05T22:40:05.833Z,4.30
2023-04-05T22:42:33.125Z,4.68
2023-04-05T22:45:02.512Z,4.60
2023-04-05T22:47:30.083Z,4.97
2023-04-05T22:49:57.393Z,4.68
2023-04-05T22:52:24.670Z,4.63
2023-04-05T22:54:51.956Z,4.72
2023-04-05T22:57:19.233Z,4.93
2023-04-05T22:59:46.505Z,4.53
2023-04-05T23:02:13.835Z,4.85
2023-04-05T23:04:41.363Z,4.70
2023-04-05T23:07:08.657Z,4.78
2023-04-05T23:09:36.317Z,4.90
2023-04-05T23:12:03.609Z,5.22
2023-04-05T23:14:30.875Z,5.53
2023-04-05T23:17:01.494Z,5.20
2023-04-05T23:19:29.066Z,5.28
2023-04-05T23:21:56.317Z,5.47
2023-04-05T23:24:23.619Z,5.05
2023-04-05T23:26:51.009Z,5.75
2023-04-05T23:29:21.414Z,5.57
2023-04-05T23:31:48.860Z,4.80
2023-04-05T23:34:16.304Z,5.57
2023-04-05T23:36:43.572Z,5.15
2023-04-05T23:39:11.087Z,5.07
2023-04-05T23:41:38.373Z,4.90
2023-04-05T23:44:05.826Z,5.13
2023-04-05T23:46:33.644Z,5.15
2023-04-05T23:49:00.990Z,5.53
2023-04-05T23:51:28.501Z,5.05
2023-04-05T23:53:56.129Z,4.60
2023-04-05T23:56:23.409Z,5.25
2023-04-05T23:58:50.940Z,5.82
